sensor_id;sensor_type;location;lat;lon;timestamp;P1;durP1;ratioP1;P2;durP2;ratioP2
10699;SDS011;5401;41.986;21.452;2022-08-19T00:00:41;11.30;;;7.90;;
10699;SDS011;5401;41.986;21.452;2022-08-19T00:03:08;16.37;;;9.67;;
10699;SDS011;5401;41.986;21.452;2022-08-19T00:05:36;15.80;;;8.67;;
10699;SDS011;5401;41.986;21.452;2022-08-19T00:08:04;14.83;;;8.80;;
10699;SDS011;5401;41.986;21.452;2022-08-19T00:10:32;18.53;;;8.43;;
10699;SDS011;5401;41.986;21.452;2022-08-19T00:13:02;14.87;;;7.80;;
10699;SDS011;5401;41.986;21.452;2022-08-19T00:15:29;17.90;;;8.53;;
10699;SDS011;5401;41.986;21.452;2022-08-19T00:17:57;10.83;;;7.53;;
10699;SDS011;5401;41.986;21.452;2022-08-19T00:20:25;25.17;;;9.43;;
10699;SDS011;5401;41.986;21.452;2022-08-19T00:22:53;33.00;;;9.83;;
10699;SDS011;5401;41.986;21.452;2022-08-19T00:25:20;22.40;;;9.80;;
10699;SDS011;5401;41.986;21.452;2022-08-19T00:27:49;30.47;;;10.97;;
10699;SDS011;5401;41.986;21.452;2022-08-19T00:30:18;45.80;;;13.40;;
10699;SDS011;5401;41.986;21.452;2022-08-19T00:32:45;35.53;;;11.53;;
10699;SDS011;5401;41.986;21.452;2022-08-19T00:35:13;38.37;;;10.77;;
10699;SDS011;5401;41.986;21.452;2022-08-19T00:37:42;31.73;;;10.87;;
10699;SDS011;5401;41.986;21.452;2022-08-19T00:40:11;27.13;;;10.50;;
10699;SDS011;5401;41.986;21.452;2022-08-19T00:42:39;23.27;;;10.13;;
10699;SDS011;5401;41.986;21.452;2022-08-19T00:45:09;18.17;;;10.30;;
10699;SDS011;5401;41.986;21.452;2022-08-19T00:47:40;32.93;;;10.67;;
10699;SDS011;5401;41.986;21.452;2022-08-19T00:50:08;30.63;;;11.33;;
10699;SDS011;5401;41.986;21.452;2022-08-19T00:52:40;22.50;;;10.10;;
10699;SDS011;5401;41.986;21.452;2022-08-19T00:55:13;29.60;;;10.47;;
10699;SDS011;5401;41.986;21.452;2022-08-19T00:57:49;32.70;;;10.13;;
10699;SDS011;5401;41.986;21.452;2022-08-19T01:00:20;23.83;;;9.20;;
10699;SDS011;5401;41.986;21.452;2022-08-19T01:02:51;22.40;;;7.47;;
10699;SDS011;5401;41.986;21.452;2022-08-19T01:05:21;18.97;;;7.87;;
10699;SDS011;5401;41.986;21.452;2022-08-19T01:07:53;20.90;;;8.33;;
10699;SDS011;5401;41.986;21.452;2022-08-19T01:10:23;21.30;;;7.70;;
10699;SDS011;5401;41.986;21.452;2022-08-19T01:12:52;16.57;;;6.73;;
10699;SDS011;5401;41.986;21.452;2022-08-19T01:15:22;14.33;;;7.67;;
10699;SDS011;5401;41.986;21.452;2022-08-19T01:17:55;15.33;;;7.13;;
10699;SDS011;5401;41.986;21.452;2022-08-19T01:20:24;10.50;;;7.07;;
10699;SDS011;5401;41.986;21.452;2022-08-19T01:22:53;10.83;;;6.87;;
10699;SDS011;5401;41.986;21.452;2022-08-19T01:25:24;9.90;;;6.87;;
10699;SDS011;5401;41.986;21.452;2022-08-19T01:27:56;12.17;;;6.70;;
10699;SDS011;5401;41.986;21.452;2022-08-19T01:30:25;12.73;;;6.30;;
10699;SDS011;5401;41.986;21.452;2022-08-19T01:32:56;16.37;;;8.17;;
10699;SDS011;5401;41.986;21.452;2022-08-19T01:35:27;10.60;;;6.90;;
10699;SDS011;5401;41.986;21.452;2022-08-19T01:37:59;12.87;;;6.07;;
10699;SDS011;5401;41.986;21.452;2022-08-19T01:40:29;11.37;;;6.70;;
10699;SDS011;5401;41.986;21.452;2022-08-19T01:42:58;12.17;;;6.37;;
10699;SDS011;5401;41.986;21.452;2022-08-19T01:45:27;11.43;;;6.50;;
10699;SDS011;5401;41.986;21.452;2022-08-19T01:47:56;8.50;;;6.67;;
10699;SDS011;5401;41.986;21.452;2022-08-19T01:50:25;7.77;;;5.93;;
10699;SDS011;5401;41.986;21.452;2022-08-19T01:52:53;12.97;;;6.23;;
10699;SDS011;5401;41.986;21.452;2022-08-19T01:55:22;12.43;;;6.43;;
10699;SDS011;5401;41.986;21.452;2022-08-19T01:57:51;10.57;;;6.17;;
10699;SDS011;5401;41.986;21.452;2022-08-19T02:00:23;7.67;;;5.93;;
10699;SDS011;5401;41.986;21.452;2022-08-19T02:02:54;8.93;;;7.20;;
10699;SDS011;5401;41.986;21.452;2022-08-19T02:05:22;13.07;;;6.53;;
10699;SDS011;5401;41.986;21.452;2022-08-19T02:07:50;40.07;;;37.47;;
10699;SDS011;5401;41.986;21.452;2022-08-19T02:10:19;39.87;;;36.87;;
10699;SDS011;5401;41.986;21.452;2022-08-19T02:12:49;42.83;;;40.23;;
10699;SDS011;5401;41.986;21.452;2022-08-19T02:15:17;46.93;;;44.13;;
10699;SDS011;5401;41.986;21.452;2022-08-19T02:17:46;42.00;;;38.87;;
10699;SDS011;5401;41.986;21.452;2022-08-19T02:20:14;20.53;;;19.03;;
10699;SDS011;5401;41.986;21.452;2022-08-19T02:22:43;38.23;;;35.43;;
10699;SDS011;5401;41.986;21.452;2022-08-19T02:25:11;40.57;;;37.47;;
10699;SDS011;5401;41.986;21.452;2022-08-19T02:27:41;45.37;;;41.97;;
10699;SDS011;5401;41.986;21.452;2022-08-19T02:30:13;40.43;;;37.30;;
10699;SDS011;5401;41.986;21.452;2022-08-19T02:32:42;43.23;;;39.73;;
10699;SDS011;5401;41.986;21.452;2022-08-19T02:35:10;43.87;;;40.87;;
10699;SDS011;5401;41.986;21.452;2022-08-19T02:37:38;40.20;;;37.10;;
10699;SDS011;5401;41.986;21.452;2022-08-19T02:40:23;15.33;;;9.40;;
10699;SDS011;5401;41.986;21.452;2022-08-19T02:42:51;14.67;;;9.37;;
10699;SDS011;5401;41.986;21.452;2022-08-19T02:45:20;11.40;;;9.07;;
10699;SDS011;5401;41.986;21.452;2022-08-19T02:47:48;11.93;;;8.87;;
10699;SDS011;5401;41.986;21.452;2022-08-19T02:50:16;14.07;;;7.83;;
10699;SDS011;5401;41.986;21.452;2022-08-19T02:52:44;12.47;;;8.10;;
10699;SDS011;5401;41.986;21.452;2022-08-19T02:55:11;11.37;;;8.83;;
10699;SDS011;5401;41.986;21.452;2022-08-19T02:57:39;15.57;;;13.97;;
10699;SDS011;5401;41.986;21.452;2022-08-19T03:00:08;33.07;;;30.73;;
10699;SDS011;5401;41.986;21.452;2022-08-19T03:02:39;30.67;;;28.23;;
10699;SDS011;5401;41.986;21.452;2022-08-19T03:05:07;35.97;;;32.97;;
10699;SDS011;5401;41.986;21.452;2022-08-19T03:07:36;18.87;;;17.27;;
10699;SDS011;5401;41.986;21.452;2022-08-19T03:10:04;23.10;;;20.93;;
10699;SDS011;5401;41.986;21.452;2022-08-19T03:12:34;18.60;;;8.10;;
10699;SDS011;5401;41.986;21.452;2022-08-19T03:15:03;10.57;;;7.53;;
10699;SDS011;5401;41.986;21.452;2022-08-19T03:17:33;8.63;;;7.23;;
10699;SDS011;5401;41.986;21.452;2022-08-19T03:20:02;10.90;;;7.20;;
10699;SDS011;5401;41.986;21.452;2022-08-19T03:22:31;11.43;;;7.30;;
10699;SDS011;5401;41.986;21.452;2022-08-19T03:24:59;8.53;;;6.90;;
10699;SDS011;5401;41.986;21.452;2022-08-19T03:27:26;12.30;;;7.47;;
10699;SDS011;5401;41.986;21.452;2022-08-19T03:29:55;10.40;;;6.23;;
10699;SDS011;5401;41.986;21.452;2022-08-19T03:32:22;16.10;;;12.23;;
10699;SDS011;5401;41.986;21.452;2022-08-19T03:34:50;14.70;;;12.33;;
10699;SDS011;5401;41.986;21.452;2022-08-19T03:37:19;9.43;;;6.97;;
10699;SDS011;5401;41.986;21.452;2022-08-19T03:39:48;9.13;;;6.97;;
10699;SDS011;5401;41.986;21.452;2022-08-19T03:42:15;11.63;;;7.10;;
10699;SDS011;5401;41.986;21.452;2022-08-19T03:44:43;11.37;;;6.87;;
10699;SDS011;5401;41.986;21.452;2022-08-19T03:47:11;9.10;;;6.90;;
10699;SDS011;5401;41.986;21.452;2022-08-19T03:49:41;11.80;;;6.87;;
10699;SDS011;5401;41.986;21.452;2022-08-19T03:52:09;11.13;;;6.77;;
10699;SDS011;5401;41.986;21.452;2022-08-19T03:54:38;10.37;;;7.23;;
10699;SDS011;5401;41.986;21.452;2022-08-19T03:57:06;10.63;;;7.07;;
10699;SDS011;5401;41.986;21.452;2022-08-19T03:59:35;11.20;;;7.23;;
10699;SDS011;5401;41.986;21.452;2022-08-19T04:02:06;13.03;;;6.83;;
10699;SDS011;5401;41.986;21.452;2022-08-19T04:04:36;7.67;;;6.00;;
10699;SDS011;5401;41.986;21.452;2022-08-19T04:07:04;13.03;;;6.90;;
10699;SDS011;5401;41.986;21.452;2022-08-19T04:09:33;10.70;;;6.70;;
10699;SDS011;5401;41.986;21.452;2022-08-19T04:12:04;9.17;;;7.07;;
10699;SDS011;5401;41.986;21.452;2022-08-19T04:14:32;14.20;;;7.60;;
10699;SDS011;5401;41.986;21.452;2022-08-19T04:17:01;9.60;;;6.37;;
10699;SDS011;5401;41.986;21.452;2022-08-19T04:19:30;8.47;;;7.03;;
10699;SDS011;5401;41.986;21.452;2022-08-19T04:21:58;10.57;;;6.63;;
10699;SDS011;5401;41.986;21.452;2022-08-19T04:24:26;9.47;;;6.73;;
10699;SDS011;5401;41.986;21.452;2022-08-19T04:26:53;18.77;;;7.53;;
10699;SDS011;5401;41.986;21.452;2022-08-19T04:29:24;14.87;;;7.40;;
10699;SDS011;5401;41.986;21.452;2022-08-19T04:31:53;15.80;;;6.73;;
10699;SDS011;5401;41.986;21.452;2022-08-19T04:34:23;12.77;;;6.50;;
10699;SDS011;5401;41.986;21.452;2022-08-19T04:36:53;10.57;;;7.53;;
10699;SDS011;5401;41.986;21.452;2022-08-19T04:39:22;12.43;;;7.20;;
10699;SDS011;5401;41.986;21.452;2022-08-19T04:42:11;12.10;;;7.23;;
10699;SDS011;5401;41.986;21.452;2022-08-19T04:44:58;13.63;;;7.10;;
10699;SDS011;5401;41.986;21.452;2022-08-19T04:47:26;11.20;;;7.67;;
10699;SDS011;5401;41.986;21.452;2022-08-19T04:49:54;14.77;;;8.43;;
10699;SDS011;5401;41.986;21.452;2022-08-19T04:52:22;15.03;;;7.83;;
10699;SDS011;5401;41.986;21.452;2022-08-19T04:54:49;9.83;;;7.37;;
10699;SDS011;5401;41.986;21.452;2022-08-19T04:57:17;15.93;;;8.87;;
10699;SDS011;5401;41.986;21.452;2022-08-19T04:59:45;26.57;;;12.60;;
10699;SDS011;5401;41.986;21.452;2022-08-19T05:02:14;26.43;;;9.07;;
10699;SDS011;5401;41.986;21.452;2022-08-19T05:04:42;26.83;;;8.73;;
10699;SDS011;5401;41.986;21.452;2022-08-19T05:07:09;20.23;;;11.00;;
10699;SDS011;5401;41.986;21.452;2022-08-19T05:09:37;14.80;;;9.50;;
10699;SDS011;5401;41.986;21.452;2022-08-19T05:12:05;16.13;;;8.90;;
10699;SDS011;5401;41.986;21.452;2022-08-19T05:14:33;16.63;;;9.03;;
10699;SDS011;5401;41.986;21.452;2022-08-19T05:17:02;22.17;;;11.87;;
10699;SDS011;5401;41.986;21.452;2022-08-19T05:19:31;22.93;;;10.90;;
10699;SDS011;5401;41.986;21.452;2022-08-19T05:22:16;21.13;;;10.30;;
10699;SDS011;5401;41.986;21.452;2022-08-19T05:25:02;23.37;;;10.43;;
10699;SDS011;5401;41.986;21.452;2022-08-19T05:27:32;17.40;;;9.20;;
10699;SDS011;5401;41.986;21.452;2022-08-19T05:30:00;19.30;;;9.30;;
10699;SDS011;5401;41.986;21.452;2022-08-19T05:32:28;19.17;;;9.13;;
10699;SDS011;5401;41.986;21.452;2022-08-19T05:34:57;20.70;;;8.80;;
10699;SDS011;5401;41.986;21.452;2022-08-19T05:37:24;18.77;;;10.43;;
10699;SDS011;5401;41.986;21.452;2022-08-19T05:39:53;23.23;;;9.83;;
10699;SDS011;5401;41.986;21.452;2022-08-19T05:42:21;19.67;;;10.00;;
10699;SDS011;5401;41.986;21.452;2022-08-19T05:44:49;22.53;;;11.93;;
10699;SDS011;5401;41.986;21.452;2022-08-19T05:47:18;17.93;;;10.87;;
10699;SDS011;5401;41.986;21.452;2022-08-19T05:49:46;19.60;;;11.17;;
10699;SDS011;5401;41.986;21.452;2022-08-19T05:52:17;25.33;;;13.70;;
10699;SDS011;5401;41.986;21.452;2022-08-19T05:54:46;21.50;;;10.60;;
10699;SDS011;5401;41.986;21.452;2022-08-19T05:57:16;19.40;;;11.47;;
10699;SDS011;5401;41.986;21.452;2022-08-19T05:59:45;24.43;;;14.90;;
10699;SDS011;5401;41.986;21.452;2022-08-19T06:02:15;21.67;;;11.57;;
10699;SDS011;5401;41.986;21.452;2022-08-19T06:04:43;29.50;;;11.53;;
10699;SDS011;5401;41.986;21.452;2022-08-19T06:07:11;32.07;;;12.53;;
10699;SDS011;5401;41.986;21.452;2022-08-19T06:09:40;13.37;;;9.40;;
10699;SDS011;5401;41.986;21.452;2022-08-19T06:12:08;22.90;;;9.40;;
10699;SDS011;5401;41.986;21.452;2022-08-19T06:14:36;12.27;;;9.30;;
10699;SDS011;5401;41.986;21.452;2022-08-19T06:17:04;12.07;;;9.70;;
10699;SDS011;5401;41.986;21.452;2022-08-19T06:19:32;12.80;;;8.97;;
10699;SDS011;5401;41.986;21.452;2022-08-19T06:21:59;17.70;;;9.93;;
10699;SDS011;5401;41.986;21.452;2022-08-19T06:24:28;17.47;;;11.10;;
10699;SDS011;5401;41.986;21.452;2022-08-19T06:26:59;12.87;;;7.73;;
10699;SDS011;5401;41.986;21.452;2022-08-19T06:29:28;13.17;;;8.00;;
10699;SDS011;5401;41.986;21.452;2022-08-19T06:31:58;13.60;;;9.17;;
10699;SDS011;5401;41.986;21.452;2022-08-19T06:34:27;13.73;;;8.67;;
10699;SDS011;5401;41.986;21.452;2022-08-19T06:36:57;12.93;;;9.07;;
10699;SDS011;5401;41.986;21.452;2022-08-19T06:39:29;22.03;;;12.50;;
10699;SDS011;5401;41.986;21.452;2022-08-19T06:42:00;16.37;;;9.63;;
10699;SDS011;5401;41.986;21.452;2022-08-19T06:44:32;14.73;;;9.87;;
10699;SDS011;5401;41.986;21.452;2022-08-19T06:47:02;14.27;;;10.00;;
10699;SDS011;5401;41.986;21.452;2022-08-19T06:49:32;15.93;;;8.87;;
10699;SDS011;5401;41.986;21.452;2022-08-19T06:52:00;12.73;;;9.97;;
10699;SDS011;5401;41.986;21.452;2022-08-19T06:54:28;20.50;;;11.43;;
10699;SDS011;5401;41.986;21.452;2022-08-19T06:56:57;13.70;;;9.10;;
10699;SDS011;5401;41.986;21.452;2022-08-19T06:59:29;10.47;;;8.07;;
10699;SDS011;5401;41.986;21.452;2022-08-19T07:01:59;30.37;;;27.50;;
10699;SDS011;5401;41.986;21.452;2022-08-19T07:04:30;42.73;;;40.03;;
10699;SDS011;5401;41.986;21.452;2022-08-19T07:06:58;42.10;;;39.50;;
10699;SDS011;5401;41.986;21.452;2022-08-19T07:09:27;40.97;;;38.47;;
10699;SDS011;5401;41.986;21.452;2022-08-19T07:11:55;49.03;;;44.80;;
10699;SDS011;5401;41.986;21.452;2022-08-19T07:14:25;41.80;;;38.67;;
10699;SDS011;5401;41.986;21.452;2022-08-19T07:16:55;41.83;;;38.70;;
10699;SDS011;5401;41.986;21.452;2022-08-19T07:19:24;40.60;;;37.63;;
10699;SDS011;5401;41.986;21.452;2022-08-19T07:21:53;37.80;;;35.13;;
10699;SDS011;5401;41.986;21.452;2022-08-19T07:24:22;39.93;;;37.27;;
10699;SDS011;5401;41.986;21.452;2022-08-19T07:26:51;40.40;;;37.83;;
10699;SDS011;5401;41.986;21.452;2022-08-19T07:29:21;33.57;;;31.20;;
10699;SDS011;5401;41.986;21.452;2022-08-19T07:31:51;33.13;;;30.40;;
10699;SDS011;5401;41.986;21.452;2022-08-19T07:34:21;25.47;;;23.47;;
10699;SDS011;5401;41.986;21.452;2022-08-19T07:36:50;28.30;;;26.20;;
10699;SDS011;5401;41.986;21.452;2022-08-19T07:39:19;28.03;;;26.03;;
10699;SDS011;5401;41.986;21.452;2022-08-19T07:41:48;19.17;;;17.53;;
10699;SDS011;5401;41.986;21.452;2022-08-19T07:44:16;16.63;;;14.33;;
10699;SDS011;5401;41.986;21.452;2022-08-19T07:46:47;8.17;;;6.07;;
10699;SDS011;5401;41.986;21.452;2022-08-19T07:49:18;17.20;;;15.57;;
10699;SDS011;5401;41.986;21.452;2022-08-19T07:51:47;12.70;;;6.27;;
10699;SDS011;5401;41.986;21.452;2022-08-19T07:54:15;8.90;;;5.70;;
10699;SDS011;5401;41.986;21.452;2022-08-19T07:56:44;12.03;;;6.40;;
10699;SDS011;5401;41.986;21.452;2022-08-19T07:59:13;38.80;;;35.97;;
10699;SDS011;5401;41.986;21.452;2022-08-19T08:01:41;24.10;;;22.47;;
10699;SDS011;5401;41.986;21.452;2022-08-19T08:04:08;42.57;;;39.87;;
10699;SDS011;5401;41.986;21.452;2022-08-19T08:06:55;9.37;;;5.60;;
10699;SDS011;5401;41.986;21.452;2022-08-19T08:09:40;41.47;;;38.60;;
10699;SDS011;5401;41.986;21.452;2022-08-19T08:12:10;41.83;;;39.10;;
10699;SDS011;5401;41.986;21.452;2022-08-19T08:14:41;43.97;;;40.90;;
10699;SDS011;5401;41.986;21.452;2022-08-19T08:17:11;13.63;;;7.13;;
10699;SDS011;5401;41.986;21.452;2022-08-19T08:19:42;9.60;;;5.80;;
10699;SDS011;5401;41.986;21.452;2022-08-19T08:22:14;12.73;;;6.53;;
10699;SDS011;5401;41.986;21.452;2022-08-19T08:25:11;8.37;;;5.33;;
10699;SDS011;5401;41.986;21.452;2022-08-19T08:27:42;12.53;;;6.13;;
10699;SDS011;5401;41.986;21.452;2022-08-19T08:30:12;12.27;;;5.90;;
10699;SDS011;5401;41.986;21.452;2022-08-19T08:32:41;10.00;;;5.40;;
10699;SDS011;5401;41.986;21.452;2022-08-19T08:35:10;10.90;;;5.40;;
10699;SDS011;5401;41.986;21.452;2022-08-19T08:37:41;71.03;;;18.63;;
10699;SDS011;5401;41.986;21.452;2022-08-19T08:40:12;10.70;;;6.07;;
10699;SDS011;5401;41.986;21.452;2022-08-19T08:42:46;8.80;;;5.43;;
10699;SDS011;5401;41.986;21.452;2022-08-19T08:45:18;8.43;;;5.07;;
10699;SDS011;5401;41.986;21.452;2022-08-19T08:47:46;8.90;;;5.10;;
10699;SDS011;5401;41.986;21.452;2022-08-19T08:50:20;9.23;;;4.30;;
10699;SDS011;5401;41.986;21.452;2022-08-19T08:52:54;10.70;;;4.90;;
10699;SDS011;5401;41.986;21.452;2022-08-19T08:55:25;11.13;;;4.63;;
10699;SDS011;5401;41.986;21.452;2022-08-19T08:57:55;9.57;;;5.20;;
10699;SDS011;5401;41.986;21.452;2022-08-19T09:00:28;45.03;;;42.00;;
10699;SDS011;5401;41.986;21.452;2022-08-19T09:02:57;47.37;;;44.67;;
10699;SDS011;5401;41.986;21.452;2022-08-19T09:05:30;11.90;;;6.53;;
10699;SDS011;5401;41.986;21.452;2022-08-19T09:08:08;13.97;;;8.20;;
10699;SDS011;5401;41.986;21.452;2022-08-19T09:10:43;10.53;;;6.47;;
10699;SDS011;5401;41.986;21.452;2022-08-19T09:13:16;9.77;;;5.97;;
10699;SDS011;5401;41.986;21.452;2022-08-19T09:15:52;10.80;;;6.80;;
10699;SDS011;5401;41.986;21.452;2022-08-19T09:18:23;10.07;;;6.03;;
10699;SDS011;5401;41.986;21.452;2022-08-19T09:20:51;7.97;;;5.83;;
10699;SDS011;5401;41.986;21.452;2022-08-19T09:23:20;6.63;;;5.57;;
10699;SDS011;5401;41.986;21.452;2022-08-19T09:25:49;8.03;;;4.97;;
10699;SDS011;5401;41.986;21.452;2022-08-19T09:28:18;6.10;;;4.70;;
10699;SDS011;5401;41.986;21.452;2022-08-19T09:30:45;9.07;;;6.30;;
10699;SDS011;5401;41.986;21.452;2022-08-19T09:33:13;11.80;;;6.40;;
10699;SDS011;5401;41.986;21.452;2022-08-19T09:35:41;47.20;;;44.20;;
10699;SDS011;5401;41.986;21.452;2022-08-19T09:38:09;7.97;;;5.87;;
10699;SDS011;5401;41.986;21.452;2022-08-19T09:40:38;11.80;;;4.87;;
10699;SDS011;5401;41.986;21.452;2022-08-19T09:43:07;26.63;;;24.93;;
10699;SDS011;5401;41.986;21.452;2022-08-19T09:45:36;9.33;;;5.90;;
10699;SDS011;5401;41.986;21.452;2022-08-19T09:48:04;8.27;;;5.17;;
10699;SDS011;5401;41.986;21.452;2022-08-19T09:50:31;45.90;;;43.07;;
10699;SDS011;5401;41.986;21.452;2022-08-19T09:53:00;40.27;;;37.90;;
10699;SDS011;5401;41.986;21.452;2022-08-19T09:55:28;24.67;;;23.03;;
10699;SDS011;5401;41.986;21.452;2022-08-19T09:57:57;20.63;;;19.20;;
10699;SDS011;5401;41.986;21.452;2022-08-19T10:00:25;33.83;;;31.53;;
10699;SDS011;5401;41.986;21.452;2022-08-19T10:02:53;22.57;;;21.10;;
10699;SDS011;5401;41.986;21.452;2022-08-19T10:05:21;25.57;;;23.20;;
10699;SDS011;5401;41.986;21.452;2022-08-19T10:08:08;23.67;;;22.07;;
10699;SDS011;5401;41.986;21.452;2022-08-19T10:10:37;21.17;;;19.47;;
10699;SDS011;5401;41.986;21.452;2022-08-19T10:13:07;23.97;;;22.53;;
10699;SDS011;5401;41.986;21.452;2022-08-19T10:15:35;21.97;;;20.27;;
10699;SDS011;5401;41.986;21.452;2022-08-19T10:18:04;20.50;;;19.10;;
10699;SDS011;5401;41.986;21.452;2022-08-19T10:20:33;29.53;;;27.93;;
10699;SDS011;5401;41.986;21.452;2022-08-19T10:23:01;28.73;;;26.80;;
10699;SDS011;5401;41.986;21.452;2022-08-19T10:25:29;30.70;;;28.83;;
10699;SDS011;5401;41.986;21.452;2022-08-19T10:28:00;17.53;;;16.23;;
10699;SDS011;5401;41.986;21.452;2022-08-19T10:30:29;46.80;;;43.53;;
10699;SDS011;5401;41.986;21.452;2022-08-19T10:32:57;20.03;;;18.20;;
10699;SDS011;5401;41.986;21.452;2022-08-19T10:35:25;17.57;;;13.60;;
10699;SDS011;5401;41.986;21.452;2022-08-19T10:37:55;9.40;;;7.60;;
10699;SDS011;5401;41.986;21.452;2022-08-19T10:40:25;14.03;;;12.93;;
10699;SDS011;5401;41.986;21.452;2022-08-19T10:42:53;12.73;;;11.43;;
10699;SDS011;5401;41.986;21.452;2022-08-19T10:45:22;12.20;;;11.40;;
10699;SDS011;5401;41.986;21.452;2022-08-19T10:47:52;12.40;;;9.50;;
10699;SDS011;5401;41.986;21.452;2022-08-19T10:50:19;24.07;;;11.30;;
10699;SDS011;5401;41.986;21.452;2022-08-19T10:53:04;13.77;;;12.37;;
10699;SDS011;5401;41.986;21.452;2022-08-19T10:55:34;10.00;;;8.40;;
10699;SDS011;5401;41.986;21.452;2022-08-19T10:58:19;13.40;;;12.10;;
10699;SDS011;5401;41.986;21.452;2022-08-19T11:00:52;11.10;;;10.03;;
10699;SDS011;5401;41.986;21.452;2022-08-19T11:03:22;11.50;;;9.20;;
10699;SDS011;5401;41.986;21.452;2022-08-19T11:05:57;13.97;;;9.07;;
10699;SDS011;5401;41.986;21.452;2022-08-19T11:08:25;15.40;;;10.13;;
10699;SDS011;5401;41.986;21.452;2022-08-19T11:10:53;10.33;;;8.80;;
10699;SDS011;5401;41.986;21.452;2022-08-19T11:13:24;14.67;;;10.70;;
10699;SDS011;5401;41.986;21.452;2022-08-19T11:15:59;13.00;;;11.87;;
10699;SDS011;5401;41.986;21.452;2022-08-19T11:18:29;10.00;;;7.63;;
10699;SDS011;5401;41.986;21.452;2022-08-19T11:21:04;7.47;;;6.33;;
10699;SDS011;5401;41.986;21.452;2022-08-19T11:23:33;7.87;;;4.80;;
10699;SDS011;5401;41.986;21.452;2022-08-19T11:26:01;5.00;;;4.50;;
10699;SDS011;5401;41.986;21.452;2022-08-19T11:28:29;13.53;;;5.10;;
10699;SDS011;5401;41.986;21.452;2022-08-19T11:30:57;9.73;;;5.33;;
10699;SDS011;5401;41.986;21.452;2022-08-19T11:33:24;8.83;;;5.00;;
10699;SDS011;5401;41.986;21.452;2022-08-19T11:35:56;12.17;;;5.03;;
10699;SDS011;5401;41.986;21.452;2022-08-19T11:38:24;7.37;;;5.30;;
10699;SDS011;5401;41.986;21.452;2022-08-19T11:40:55;8.27;;;4.70;;
10699;SDS011;5401;41.986;21.452;2022-08-19T11:43:24;7.73;;;4.53;;
10699;SDS011;5401;41.986;21.452;2022-08-19T11:45:52;8.27;;;4.63;;
10699;SDS011;5401;41.986;21.452;2022-08-19T11:48:21;9.63;;;4.30;;
10699;SDS011;5401;41.986;21.452;2022-08-19T11:50:49;6.50;;;3.80;;
10699;SDS011;5401;41.986;21.452;2022-08-19T11:53:19;8.90;;;4.80;;
10699;SDS011;5401;41.986;21.452;2022-08-19T11:55:47;7.00;;;3.60;;
10699;SDS011;5401;41.986;21.452;2022-08-19T11:58:16;7.50;;;4.73;;
10699;SDS011;5401;41.986;21.452;2022-08-19T12:00:44;9.30;;;4.63;;
10699;SDS011;5401;41.986;21.452;2022-08-19T12:03:12;8.97;;;4.63;;
10699;SDS011;5401;41.986;21.452;2022-08-19T12:05:40;10.83;;;4.70;;
10699;SDS011;5401;41.986;21.452;2022-08-19T12:08:08;7.80;;;4.43;;
10699;SDS011;5401;41.986;21.452;2022-08-19T12:10:40;9.03;;;4.43;;
10699;SDS011;5401;41.986;21.452;2022-08-19T12:13:08;8.43;;;4.30;;
10699;SDS011;5401;41.986;21.452;2022-08-19T12:15:36;6.70;;;4.30;;
10699;SDS011;5401;41.986;21.452;2022-08-19T12:18:06;7.33;;;3.90;;
10699;SDS011;5401;41.986;21.452;2022-08-19T12:20:34;9.10;;;4.30;;
10699;SDS011;5401;41.986;21.452;2022-08-19T12:23:02;8.20;;;4.90;;
10699;SDS011;5401;41.986;21.452;2022-08-19T12:25:31;13.53;;;4.80;;
10699;SDS011;5401;41.986;21.452;2022-08-19T12:28:00;8.40;;;3.80;;
10699;SDS011;5401;41.986;21.452;2022-08-19T12:30:27;14.53;;;4.43;;
10699;SDS011;5401;41.986;21.452;2022-08-19T12:32:55;36.67;;;11.13;;
10699;SDS011;5401;41.986;21.452;2022-08-19T12:35:23;16.03;;;5.07;;
10699;SDS011;5401;41.986;21.452;2022-08-19T12:37:50;49.73;;;13.53;;
10699;SDS011;5401;41.986;21.452;2022-08-19T12:40:18;21.83;;;6.20;;
10699;SDS011;5401;41.986;21.452;2022-08-19T12:42:45;30.40;;;8.90;;
10699;SDS011;5401;41.986;21.452;2022-08-19T12:45:18;23.00;;;6.17;;
10699;SDS011;5401;41.986;21.452;2022-08-19T12:47:47;11.80;;;4.03;;
10699;SDS011;5401;41.986;21.452;2022-08-19T12:50:15;12.30;;;4.63;;
10699;SDS011;5401;41.986;21.452;2022-08-19T12:52:43;9.60;;;4.10;;
10699;SDS011;5401;41.986;21.452;2022-08-19T12:55:10;12.80;;;3.70;;
10699;SDS011;5401;41.986;21.452;2022-08-19T12:57:38;9.07;;;4.07;;
10699;SDS011;5401;41.986;21.452;2022-08-19T13:00:07;11.47;;;3.87;;
10699;SDS011;5401;41.986;21.452;2022-08-19T13:02:39;11.27;;;3.97;;
10699;SDS011;5401;41.986;21.452;2022-08-19T13:05:08;8.93;;;4.17;;
10699;SDS011;5401;41.986;21.452;2022-08-19T13:07:37;14.30;;;3.90;;
10699;SDS011;5401;41.986;21.452;2022-08-19T13:10:07;9.13;;;3.77;;
10699;SDS011;5401;41.986;21.452;2022-08-19T13:12:36;10.63;;;3.90;;
10699;SDS011;5401;41.986;21.452;2022-08-19T13:15:05;15.90;;;3.93;;
10699;SDS011;5401;41.986;21.452;2022-08-19T13:17:34;13.10;;;3.70;;
10699;SDS011;5401;41.986;21.452;2022-08-19T13:20:04;14.83;;;4.43;;
10699;SDS011;5401;41.986;21.452;2022-08-19T13:22:33;7.57;;;4.20;;
10699;SDS011;5401;41.986;21.452;2022-08-19T13:25:01;9.30;;;4.43;;
10699;SDS011;5401;41.986;21.452;2022-08-19T13:27:29;7.53;;;3.73;;
10699;SDS011;5401;41.986;21.452;2022-08-19T13:30:03;13.31;;;3.49;;
10699;SDS011;5401;41.986;21.452;2022-08-19T13:32:49;10.30;;;4.30;;
10699;SDS011;5401;41.986;21.452;2022-08-19T13:35:36;13.57;;;4.30;;
10699;SDS011;5401;41.986;21.452;2022-08-19T13:38:03;10.50;;;4.20;;
10699;SDS011;5401;41.986;21.452;2022-08-19T13:40:31;12.10;;;4.07;;
10699;SDS011;5401;41.986;21.452;2022-08-19T13:43:00;9.97;;;4.40;;
10699;SDS011;5401;41.986;21.452;2022-08-19T13:45:29;14.93;;;4.00;;
10699;SDS011;5401;41.986;21.452;2022-08-19T13:47:59;10.77;;;6.97;;
10699;SDS011;5401;41.986;21.452;2022-08-19T13:50:32;10.87;;;3.57;;
10699;SDS011;5401;41.986;21.452;2022-08-19T13:53:01;18.60;;;4.60;;
10699;SDS011;5401;41.986;21.452;2022-08-19T13:55:29;15.83;;;5.07;;
10699;SDS011;5401;41.986;21.452;2022-08-19T13:57:58;16.90;;;5.50;;
10699;SDS011;5401;41.986;21.452;2022-08-19T14:00:28;16.33;;;5.40;;
10699;SDS011;5401;41.986;21.452;2022-08-19T14:02:57;19.33;;;4.60;;
10699;SDS011;5401;41.986;21.452;2022-08-19T14:05:25;13.13;;;4.80;;
10699;SDS011;5401;41.986;21.452;2022-08-19T14:07:54;14.93;;;4.43;;
10699;SDS011;5401;41.986;21.452;2022-08-19T14:10:24;16.93;;;4.97;;
10699;SDS011;5401;41.986;21.452;2022-08-19T14:12:52;17.90;;;4.90;;
10699;SDS011;5401;41.986;21.452;2022-08-19T14:15:21;17.90;;;4.27;;
10699;SDS011;5401;41.986;21.452;2022-08-19T14:17:50;14.57;;;4.73;;
10699;SDS011;5401;41.986;21.452;2022-08-19T14:20:18;18.80;;;4.07;;
10699;SDS011;5401;41.986;21.452;2022-08-19T14:22:46;15.03;;;4.00;;
10699;SDS011;5401;41.986;21.452;2022-08-19T14:25:15;11.67;;;4.10;;
10699;SDS011;5401;41.986;21.452;2022-08-19T14:27:46;14.23;;;3.83;;
10699;SDS011;5401;41.986;21.452;2022-08-19T14:30:15;14.50;;;3.97;;
10699;SDS011;5401;41.986;21.452;2022-08-19T14:32:44;17.57;;;3.83;;
10699;SDS011;5401;41.986;21.452;2022-08-19T14:35:12;16.73;;;3.97;;
10699;SDS011;5401;41.986;21.452;2022-08-19T14:37:42;16.77;;;4.33;;
10699;SDS011;5401;41.986;21.452;2022-08-19T14:40:11;12.93;;;4.40;;
10699;SDS011;5401;41.986;21.452;2022-08-19T14:42:40;14.30;;;4.50;;
10699;SDS011;5401;41.986;21.452;2022-08-19T14:45:10;15.90;;;4.80;;
10699;SDS011;5401;41.986;21.452;2022-08-19T14:47:38;20.67;;;3.97;;